Time;durP1;ratioP1;P1;durP2;ratioP2;P2;SDS_P1;SDS_P2;PMS_P1;PMS_P2;Temp;Humidity;BMP_temperature;BMP_pressure;BME280_temperature;BME280_humidity;BME280_pressure;Samples;Min_cycle;Max_cycle;Signal;HPM_P1;HPM_P2
2021/06/03 00:00:38;;;;;;;2.17;1.58;;;14.90;99.90;;;14.51;68.45;101186.22;5026267;28;20491;-48
2021/06/03 00:03:05;;;;;;;8.43;1.45;;;15.00;99.90;;;14.54;68.33;101191.16;5007844;28;20200;-45
2021/06/03 00:05:47;;;;;;;3.55;1.73;;;15.00;99.90;;;14.53;68.57;101196.53;5027041;28;20143;-48
2021/06/03 00:08:16;;;;;;;3.83;1.38;;;15.00;99.90;;;14.43;68.18;101182.69;5018914;28;20153;-47
2021/06/03 00:10:57;;;;;;;4.63;1.40;;;14.90;99.90;;;14.36;68.99;101186.84;5016809;28;20061;-54
2021/06/03 00:13:26;;;;;;;3.55;1.40;;;14.90;99.90;;;14.27;69.06;101184.16;5023777;28;20073;-47
2021/06/03 00:15:54;;;;;;;3.97;1.20;;;14.80;99.90;;;14.19;69.64;101181.47;5022360;28;20048;-50
2021/06/03 00:18:20;;;;;;;2.13;1.00;;;14.80;99.90;;;14.14;70.00;101185.53;5021650;28;20065;-52
2021/06/03 00:20:46;;;;;;;4.72;1.60;;;14.70;99.90;;;14.09;70.01;101190.41;5026670;28;20034;-52
2021/06/03 00:23:12;;;;;;;3.80;1.45;;;14.70;99.90;;;14.03;70.10;101191.00;5027567;28;20041;-52
2021/06/03 00:25:38;;;;;;;2.85;1.13;;;14.60;99.90;;;14.02;69.83;101184.94;5026754;28;20112;-53
2021/06/03 00:28:05;;;;;;;3.30;1.00;;;14.60;99.90;;;14.03;69.65;101181.34;5008062;28;20159;-53
2021/06/03 00:30:32;;;;;;;3.38;1.50;;;14.50;99.90;;;14.06;69.68;101181.06;5026341;28;20086;-48
2021/06/03 00:32:58;;;;;;;5.10;1.20;;;14.60;99.90;;;14.07;69.45;101189.72;5025726;28;20438;-44
2021/06/03 00:35:24;;;;;;;2.80;1.70;;;14.60;99.90;;;14.06;69.33;101185.47;5027377;28;20123;-49
2021/06/03 00:37:51;;;;;;;4.88;2.28;;;14.60;99.90;;;14.03;69.71;101186.59;5026328;28;20380;-49
2021/06/03 00:40:19;;;;;;;2.85;1.35;;;14.50;99.90;;;14.00;69.81;101186.06;5009073;28;20037;-46
2021/06/03 00:42:45;;;;;;;2.05;1.23;;;14.50;99.90;;;13.95;69.93;101173.41;5026394;28;20041;-45
2021/06/03 00:45:20;;;;;;;1.90;1.20;;;14.50;99.90;;;13.94;70.15;101187.47;5008493;28;20041;-46
2021/06/03 00:47:46;;;;;;;1.55;1.25;;;14.50;99.90;;;13.91;70.36;101183.34;5026201;28;20037;-53
2021/06/03 00:50:19;;;;;;;2.83;1.67;;;14.50;99.90;;;13.88;70.46;101183.66;5026517;28;20048;-52
2021/06/03 00:52:46;;;;;;;5.70;1.80;;;14.40;99.90;;;13.89;70.24;101185.28;4997170;28;20129;-47
2021/06/03 00:55:12;;;;;;;3.67;1.77;;;14.40;99.90;;;13.90;70.75;101186.13;5025115;28;20033;-49
2021/06/03 00:57:38;;;;;;;2.55;1.70;;;14.40;99.90;;;13.81;71.18;101190.44;5027258;28;20029;-47
2021/06/03 01:00:11;;;;;;;2.25;1.75;;;14.40;99.90;;;13.86;70.92;101190.81;5022991;28;20400;-46
2021/06/03 01:02:37;;;;;;;1.70;1.20;;;14.40;99.90;;;13.94;70.29;101190.09;5024050;28;20124;-47
2021/06/03 01:05:24;;;;;;;1.90;1.10;;;14.40;99.90;;;13.94;70.47;101190.09;5027272;28;20187;-51
2021/06/03 01:07:53;;;;;;;5.60;1.25;;;14.40;99.90;;;13.95;69.88;101183.88;5025351;28;20473;-48
2021/06/03 01:10:34;;;;;;;4.55;1.70;;;14.40;99.90;;;13.93;70.53;101189.28;5005884;28;20511;-48
2021/06/03 01:13:25;;;;;;;3.95;1.27;;;14.40;99.90;;;13.86;70.76;101187.38;5007226;28;20044;-47
2021/06/03 01:15:53;;;;;;;4.13;1.58;;;14.40;99.90;;;13.76;70.76;101190.06;5027313;28;20033;-50
2021/06/03 01:18:20;;;;;;;2.47;1.58;;;14.30;99.90;;;13.70;71.25;101195.09;5006002;28;20476;-46
2021/06/03 01:20:49;;;;;;;4.97;1.67;;;14.20;99.90;;;13.63;71.45;101183.56;5019799;28;20033;-49
2021/06/03 01:23:48;;;;;;;2.17;1.10;;;14.20;99.90;;;13.59;72.42;101191.69;5022989;28;20137;-49
2021/06/03 01:26:17;;;;;;;2.63;1.70;;;14.10;99.90;;;13.55;72.22;101195.56;5011256;28;20140;-52
2021/06/03 01:28:45;;;;;;;4.80;1.38;;;14.10;99.90;;;13.55;72.21;101192.97;5023030;28;20037;-48
2021/06/03 01:31:11;;;;;;;1.60;1.08;;;14.10;99.90;;;13.57;72.21;101195.44;5010456;28;20049;-45
2021/06/03 01:33:41;;;;;;;2.15;1.48;;;14.10;99.90;;;13.54;72.07;101196.56;5028582;28;20476;-48
2021/06/03 01:36:14;;;;;;;4.10;1.42;;;14.10;99.90;;;13.52;72.82;101193.25;5011467;28;21566;-50
2021/06/03 01:38:41;;;;;;;3.97;1.45;;;14.10;99.90;;;13.47;72.22;101192.03;5029806;28;20405;-47
2021/06/03 01:41:10;;;;;;;1.70;1.33;;;14.00;99.90;;;13.42;72.36;101187.22;5028483;28;20052;-46
2021/06/03 01:43:41;;;;;;;3.33;1.50;;;14.00;99.90;;;13.42;73.10;101200.31;5029271;28;20052;-47
2021/06/03 01:46:07;;;;;;;3.05;1.25;;;14.00;99.90;;;13.40;72.53;101193.59;5029218;28;20060;-49
2021/06/03 01:48:34;;;;;;;3.00;1.35;;;13.90;99.90;;;13.41;72.27;101190.00;5028964;28;20430;-49
2021/06/03 01:51:06;;;;;;;3.25;1.55;;;13.90;99.90;;;13.39;73.07;101192.75;4994560;28;20200;-46
2021/06/03 01:53:33;;;;;;;5.05;1.60;;;13.90;99.90;;;13.41;72.20;101188.22;5029890;28;20060;-44
2021/06/03 01:56:07;;;;;;;3.90;1.42;;;13.90;99.90;;;13.41;72.23;101185.59;5029052;28;20393;-52
2021/06/03 01:58:34;;;;;;;4.00;1.63;;;13.90;99.90;;;13.43;71.81;101188.88;5029129;28;20030;-52
2021/06/03 02:01:01;;;;;;;1.48;1.38;;;13.90;99.90;;;13.40;72.20;101178.69;5010879;28;20033;-52
2021/06/03 02:03:27;;;;;;;2.10;1.90;;;13.90;99.90;;;13.27;73.03;101181.66;5028911;28;20029;-50
2021/06/03 02:05:55;;;;;;;3.83;1.73;;;13.80;99.90;;;13.18;73.72;101173.88;5029465;28;20500;-52
2021/06/03 02:08:22;;;;;;;3.75;1.65;;;13.80;99.90;;;13.21;73.79;101176.19;5028021;28;20163;-50
2021/06/03 02:10:50;;;;;;;2.35;1.58;;;13.70;99.90;;;13.27;73.36;101178.22;5030023;28;20056;-52
2021/06/03 02:13:29;;;;;;;5.78;1.20;;;13.80;99.90;;;13.33;72.77;101180.25;5010478;28;20037;-51
2021/06/03 02:16:01;;;;;;;2.25;1.70;;;13.80;99.90;;;13.35;72.81;101183.53;5027689;28;20049;-51
2021/06/03 02:18:39;;;;;;;5.00;1.50;;;13.80;99.90;;;13.34;72.79;101176.66;5029138;28;20033;-51
2021/06/03 02:21:06;;;;;;;3.10;1.50;;;13.80;99.90;;;13.33;72.41;101182.88;5029532;28;20651;-46
2021/06/03 02:23:33;;;;;;;3.08;1.52;;;13.80;99.90;;;13.31;72.53;101189.22;5027793;28;20504;-49
2021/06/03 02:26:02;;;;;;;4.38;1.65;;;13.80;99.90;;;13.27;72.85;101191.28;5029627;28;20045;-51
2021/06/03 02:28:31;;;;;;;3.40;1.42;;;13.80;99.90;;;13.22;73.59;101188.31;5020355;28;20456;-52
2021/06/03 02:30:59;;;;;;;2.53;1.30;;;13.70;99.90;;;13.14;74.28;101188.16;5027258;28;20119;-50
2021/06/03 02:33:28;;;;;;;4.07;1.63;;;13.70;99.90;;;13.10;74.52;101198.09;5011950;28;20116;-50
2021/06/03 02:35:55;;;;;;;3.85;1.40;;;13.60;99.90;;;13.06;74.41;101191.50;5028020;28;20501;-47
2021/06/03 02:38:28;;;;;;;2.05;1.45;;;13.60;99.90;;;13.06;74.95;101193.28;5022814;28;20041;-52
2021/06/03 02:40:59;;;;;;;5.72;1.65;;;13.50;99.90;;;13.06;74.62;101193.28;5009679;28;20120;-50
2021/06/03 02:43:26;;;;;;;1.60;1.42;;;13.60;99.90;;;13.06;74.43;101190.66;5014647;28;20400;-50
2021/06/03 02:45:53;;;;;;;2.33;1.30;;;13.60;99.90;;;13.08;74.46;101197.41;5029118;28;20052;-49
2021/06/03 02:48:19;;;;;;;6.38;1.48;;;13.60;99.90;;;13.07;74.67;101187.09;5028451;28;20405;-49
2021/06/03 02:50:47;;;;;;;3.22;1.48;;;13.60;99.90;;;13.12;74.09;101195.34;5029369;28;20040;-52
2021/06/03 02:53:14;;;;;;;4.18;1.70;;;13.60;99.90;;;13.11;74.25;101191.06;5027470;28;20037;-50
2021/06/03 02:55:41;;;;;;;1.90;1.40;;;13.60;99.90;;;13.10;73.98;101197.28;5028794;28;20084;-53
2021/06/03 02:58:08;;;;;;;3.75;1.58;;;13.60;99.90;;;13.14;73.63;101202.06;5026902;28;20037;-51
2021/06/03 03:00:36;;;;;;;2.42;1.75;;;13.60;99.90;;;13.21;73.36;101195.34;5029261;28;20045;-47
2021/06/03 03:03:05;;;;;;;2.22;1.25;;;13.70;99.90;;;13.20;73.21;101201.53;5027726;28;20034;-46
2021/06/03 03:05:32;;;;;;;2.70;1.65;;;13.70;99.90;;;13.15;73.27;101200.28;5029053;28;20385;-51
2021/06/03 03:07:58;;;;;;;2.92;1.55;;;13.70;99.90;;;13.12;73.71;101200.56;5010110;28;20042;-50
2021/06/03 03:10:29;;;;;;;4.93;1.58;;;13.60;99.90;;;13.12;73.79;101201.38;5028789;28;20045;-53
2021/06/03 03:12:56;;;;;;;2.05;1.63;;;13.60;99.90;;;13.18;73.37;101202.66;5028185;28;20048;-49
2021/06/03 03:15:23;;;;;;;2.97;1.73;;;13.70;99.90;;;13.24;72.89;101207.28;5028804;28;20172;-49
2021/06/03 03:17:50;;;;;;;2.40;1.60;;;13.70;99.90;;;13.20;73.28;101204.16;5026850;28;20537;-53
2021/06/03 03:20:19;;;;;;;7.13;1.17;;;13.70;99.90;;;13.19;73.51;101206.91;5028280;28;20477;-48
2021/06/03 03:22:47;;;;;;;2.35;1.35;;;13.70;99.90;;;13.15;74.13;101205.50;5027712;28;20030;-50
2021/06/03 03:25:15;;;;;;;3.22;1.50;;;13.70;99.90;;;13.12;74.13;101200.56;5010503;28;20037;-49
2021/06/03 03:27:44;;;;;;;3.25;1.60;;;13.70;99.90;;;13.12;74.41;101205.81;5024566;28;20103;-50
2021/06/03 03:30:12;;;;;;;4.47;2.13;;;13.60;99.90;;;13.11;74.27;101204.97;5028067;28;20053;-51
2021/06/03 03:32:38;;;;;;;2.10;1.33;;;13.60;99.90;;;13.08;74.76;101204.44;5026333;28;20033;-52
2021/06/03 03:35:07;;;;;;;2.35;1.80;;;13.60;99.90;;;13.07;74.81;101208.00;5028536;28;20477;-53
2021/06/03 03:37:34;;;;;;;1.85;1.58;;;13.60;99.90;;;13.09;74.48;101211.31;5027087;28;20598;-53
2021/06/03 03:40:00;;;;;;;7.90;1.90;;;13.60;99.90;;;13.12;74.13;101203.19;5009617;28;20033;-51
2021/06/03 03:42:27;;;;;;;4.22;1.45;;;13.60;99.90;;;13.20;73.66;101214.63;5027001;28;20113;-45
2021/06/03 03:44:53;;;;;;;2.20;1.30;;;13.60;99.90;;;13.27;73.54;101222.69;5025809;28;20128;-51
2021/06/03 03:47:19;;;;;;;3.13;1.60;;;13.70;99.90;;;13.29;73.85;101226.00;5014344;28;20113;-45
2021/06/03 03:49:45;;;;;;;2.00;1.27;;;13.80;99.90;;;13.33;73.57;101222.13;5016324;28;20068;-48
2021/06/03 03:52:11;;;;;;;4.25;1.45;;;13.80;99.90;;;13.40;73.66;101225.00;5022381;28;20472;-45
2021/06/03 03:54:38;;;;;;;2.88;1.70;;;13.90;99.90;;;13.39;73.31;101218.09;5009344;28;20084;-48
2021/06/03 03:57:05;;;;;;;1.75;1.40;;;13.90;99.90;;;13.43;73.38;101222.09;5027183;28;20488;-52
2021/06/03 03:59:31;;;;;;;2.30;1.35;;;13.90;99.90;;;13.44;73.25;101224.56;5005587;28;20397;-49
2021/06/03 04:01:57;;;;;;;2.80;1.50;;;14.00;99.90;;;13.49;73.48;101221.50;5008624;28;20037;-51
2021/06/03 04:04:24;;;;;;;3.55;1.30;;;14.00;99.90;;;13.79;72.17;101220.38;5008528;28;20031;-52
2021/06/03 04:06:51;;;;;;;3.05;1.90;;;14.30;99.90;;;14.58;69.43;101221.34;5028172;28;20041;-52
2021/06/03 04:09:18;;;;;;;3.33;1.05;;;15.00;99.90;;;14.88;68.12;101220.06;5008793;28;20040;-49
2021/06/03 04:11:44;;;;;;;2.55;1.50;;;15.50;99.90;;;15.37;67.03;101217.69;5027700;28;20061;-50
2021/06/03 04:14:10;;;;;;;3.17;1.42;;;16.20;99.90;;;15.87;65.14;101228.25;5024065;28;20353;-50
2021/06/03 04:16:36;;;;;;;3.10;1.48;;;16.90;99.90;;;16.27;63.20;101227.50;5009935;28;20052;-53
2021/06/03 04:19:03;;;;;;;1.85;1.60;;;17.40;99.90;;;16.37;63.00;101224.72;5026015;28;20112;-53
2021/06/03 04:21:29;;;;;;;4.53;1.20;;;17.80;98.90;;;16.37;62.45;101224.72;5026739;28;20033;-52
2021/06/03 04:23:55;;;;;;;5.40;1.35;;;17.90;97.70;;;16.72;61.63;101223.56;5027539;28;20120;-52
2021/06/03 04:26:21;;;;;;;3.30;1.00;;;18.10;97.30;;;16.92;60.75;101224.88;5007923;28;20033;-49
2021/06/03 04:28:47;;;;;;;1.83;0.90;;;18.30;96.20;;;17.19;59.95;101226.28;5027493;28;20029;-52
2021/06/03 04:31:14;;;;;;;4.43;1.38;;;18.60;94.90;;;17.23;60.16;101216.22;5025549;28;20121;-53
2021/06/03 04:33:40;;;;;;;4.00;1.05;;;18.80;94.60;;;17.20;60.59;101222.66;5027566;28;20044;-50
2021/06/03 04:36:07;;;;;;;2.95;1.33;;;18.80;94.50;;;17.78;59.15;101220.63;5025982;28;20037;-53
2021/06/03 04:38:34;;;;;;;2.83;1.40;;;19.30;93.40;;;18.35;57.18;101233.44;5024911;28;20380;-51
2021/06/03 04:41:00;;;;;;;2.70;1.15;;;20.00;91.60;;;18.84;56.58;101233.88;5027522;28;20037;-53
2021/06/03 04:43:27;;;;;;;4.97;1.10;;;20.50;90.60;;;18.97;56.24;101235.88;5025607;28;20130;-56
2021/06/03 04:45:53;;;;;;;3.28;1.10;;;21.10;87.20;;;18.90;56.19;101239.22;5025520;28;20465;-56
2021/06/03 04:48:20;;;;;;;2.65;0.93;;;21.20;84.00;;;18.96;55.73;101244.78;5027356;28;20069;-54
2021/06/03 04:50:46;;;;;;;4.45;1.20;;;21.10;81.80;;;18.75;55.81;101245.50;5025596;28;20064;-55
2021/06/03 04:53:13;;;;;;;1.90;1.10;;;20.90;82.70;;;18.55;57.03;101250.41;5027179;28;20385;-55
2021/06/03 04:55:39;;;;;;;1.88;0.93;;;20.80;83.00;;;19.46;54.63;101252.00;5025499;28;20041;-51
2021/06/03 04:58:07;;;;;;;5.07;1.20;;;21.40;81.10;;;19.64;54.17;101254.28;5015637;28;20177;-51
2021/06/03 05:00:37;;;;;;;4.03;1.02;;;21.80;79.20;;;19.99;52.73;101245.53;5018265;28;20053;-49
2021/06/03 05:03:06;;;;;;;6.60;1.30;;;22.50;74.60;;;19.57;53.38;101256.84;5011802;28;20161;-52
2021/06/03 05:05:32;;;;;;;2.30;1.00;;;22.30;74.40;;;20.09;52.66;101254.00;5021689;28;20033;-54
2021/06/03 05:07:58;;;;;;;7.13;1.10;;;22.50;73.80;;;19.61;53.51;101252.00;5030019;28;20080;-55
2021/06/03 05:10:27;;;;;;;2.85;0.82;;;22.20;73.70;;;19.30;54.03;101253.03;5030158;28;20045;-54
2021/06/03 05:12:54;;;;;;;1.30;1.00;;;21.70;73.50;;;19.22;54.43;101245.19;5031016;28;20033;-55
2021/06/03 05:15:20;;;;;;;3.60;0.95;;;21.30;76.00;;;19.24;53.92;101256.38;5029082;28;20033;-56
2021/06/03 05:17:51;;;;;;;3.22;0.70;;;21.30;75.40;;;19.50;53.06;101264.66;5029954;28;20073;-54
2021/06/03 05:20:19;;;;;;;3.63;1.02;;;21.50;74.60;;;20.01;51.53;101253.28;5029462;28;20037;-47
2021/06/03 05:22:46;;;;;;;5.25;1.10;;;22.10;71.20;;;20.71;49.69;101248.09;5030927;28;20040;-50
2021/06/03 05:25:16;;;;;;;1.92;0.98;;;22.90;69.40;;;21.25;48.86;101252.75;5029995;28;20037;-55
2021/06/03 05:27:43;;;;;;;2.33;0.90;;;23.50;68.10;;;21.03;49.24;101256.44;5029794;28;20138;-55
2021/06/03 05:30:12;;;;;;;3.42;1.00;;;23.60;66.40;;;21.21;48.73;101264.75;5029525;28;20425;-51
2021/06/03 05:32:39;;;;;;;4.47;1.00;;;23.80;64.90;;;21.08;49.15;101260.16;5030326;28;20056;-55
2021/06/03 05:35:08;;;;;;;3.28;0.88;;;24.00;64.50;;;21.96;47.12;101255.88;5031022;28;20041;-53
2021/06/03 05:37:34;;;;;;;2.92;0.80;;;24.60;63.40;;;22.20;47.20;101256.38;5028322;28;20045;-52
2021/06/03 05:40:00;;;;;;;3.00;1.00;;;25.00;62.60;;;22.16;46.91;101256.78;5029656;28;20072;-50
2021/06/03 05:42:27;;;;;;;5.93;0.88;;;25.20;61.20;;;21.50;48.52;101261.03;5030410;28;20515;-54
2021/06/03 05:44:53;;;;;;;7.13;1.30;;;24.60;61.30;;;21.58;48.31;101265.34;5027583;28;20088;-54
2021/06/03 05:47:19;;;;;;;2.75;1.20;;;24.50;62.20;;;21.63;48.39;101262.91;5026940;28;20120;-49
2021/06/03 05:49:46;;;;;;;4.00;1.00;;;24.30;62.60;;;21.88;47.82;101266.66;5019013;28;20129;-51
2021/06/03 05:52:13;;;;;;;3.95;1.08;;;24.80;61.60;;;22.04;48.09;101271.66;4992570;28;20072;-49
2021/06/03 05:54:39;;;;;;;3.53;1.58;;;24.90;61.50;;;22.07;47.84;101263.31;5027874;28;20056;-53
2021/06/03 05:57:05;;;;;;;4.03;0.80;;;25.20;60.60;;;21.77;48.37;101268.06;5012223;28;20501;-52
2021/06/03 05:59:31;;;;;;;4.13;0.90;;;24.70;61.60;;;21.81;48.37;101273.78;5030251;28;20033;-52
2021/06/03 06:02:03;;;;;;;4.35;2.10;;;24.70;61.10;;;21.82;48.63;101270.13;5029862;28;20221;-50
2021/06/03 06:06:55;;;;;;;6.78;0.70;;;24.70;61.30;;;22.28;47.40;101270.25;5029763;28;20037;-53
2021/06/03 06:09:21;;;;;;;1.60;1.10;;;25.00;60.80;;;22.11;47.66;101271.69;5029166;28;20087;-53
2021/06/03 06:11:48;;;;;;;3.60;0.90;;;25.10;60.40;;;22.48;46.39;101265.81;5029772;28;20507;-53
2021/06/03 06:14:15;;;;;;;4.22;1.00;;;25.30;59.80;;;23.07;45.68;101264.16;5029561;28;20052;-51
2021/06/03 06:16:41;;;;;;;3.95;0.95;;;26.10;57.90;;;22.71;46.50;101265.38;5029893;28;20083;-51
2021/06/03 06:19:10;;;;;;;2.97;1.20;;;25.90;58.40;;;23.59;44.43;101273.06;5029711;28;20439;-52
2021/06/03 06:21:37;;;;;;;4.28;0.93;;;26.90;56.50;;;24.20;43.22;101269.84;5029878;28;20036;-48
2021/06/03 06:24:04;;;;;;;3.28;1.10;;;27.50;55.50;;;24.64;42.32;101280.41;5029873;28;20484;-50
2021/06/03 06:26:33;;;;;;;2.63;0.65;;;27.90;54.20;;;24.24;43.51;101271.06;5029634;28;20054;-50
2021/06/03 06:28:59;;;;;;;1.52;0.70;;;27.40;55.30;;;24.46;43.01;101275.03;5011272;28;20029;-47
2021/06/03 06:31:25;;;;;;;3.17;0.70;;;27.70;54.30;;;24.43;42.31;101276.28;5029572;28;20037;-51
2021/06/03 06:33:51;;;;;;;1.45;1.05;;;27.60;54.20;;;24.72;42.18;101279.31;5029766;28;20025;-48
2021/06/03 06:36:17;;;;;;;2.58;0.90;;;27.90;53.70;;;24.70;41.31;101282.22;5029539;28;20078;-52
2021/06/03 06:38:44;;;;;;;2.25;0.70;;;27.90;53.20;;;25.12;41.36;101285.13;5028114;28;20079;-47
2021/06/03 06:41:11;;;;;;;2.80;0.70;;;28.30;52.50;;;25.37;40.48;101293.91;5029291;28;20091;-48
2021/06/03 06:43:39;;;;;;;2.50;0.82;;;28.30;52.90;;;25.27;40.84;101290.94;5029265;28;20021;-47
2021/06/03 06:46:06;;;;;;;5.57;0.88;;;28.90;52.10;;;25.91;39.69;101281.56;5029462;28;20131;-48
2021/06/03 06:48:33;;;;;;;7.35;0.70;;;29.60;51.00;;;25.67;40.44;101285.97;5011165;28;20120;-51
2021/06/03 06:51:00;;;;;;;2.40;0.85;;;29.80;50.30;;;25.51;40.62;101288.44;5029108;28;20381;-52
2021/06/03 06:53:26;;;;;;;6.63;0.70;;;29.50;50.10;;;24.96;41.51;101285.72;5027736;28;20346;-48
2021/06/03 06:55:53;;;;;;;3.60;0.60;;;28.90;51.10;;;25.33;40.28;101292.72;5028720;28;20377;-46
2021/06/03 06:58:19;;;;;;;4.03;0.70;;;28.80;50.60;;;25.79;39.57;101281.50;5027732;28;20025;-50
2021/06/03 07:00:46;;;;;;;0.98;0.57;;;29.00;50.70;;;25.16;40.47;101294.31;5029267;28;20033;-50
2021/06/03 07:03:13;;;;;;;2.85;0.90;;;28.90;50.00;;;25.31;40.17;101293.97;5029274;28;20033;-51
2021/06/03 07:05:42;;;;;;;5.35;1.20;;;28.70;50.70;;;25.29;39.91;101291.53;5029192;28;20040;-50
2021/06/03 07:08:09;;;;;;;6.25;0.80;;;28.80;50.00;;;25.05;39.40;101290.53;5029246;28;20022;-52
2021/06/03 07:10:35;;;;;;;2.30;0.85;;;28.50;50.10;;;24.13;41.36;101292.00;5028808;28;20045;-54
2021/06/03 07:13:02;;;;;;;3.85;0.70;;;26.80;52.80;;;23.42;43.27;101293.94;5028976;28;20034;-50
2021/06/03 07:15:28;;;;;;;2.13;0.90;;;25.10;56.30;;;22.89;44.37;101290.56;5026898;28;20052;-52
2021/06/03 07:17:55;;;;;;;4.43;0.90;;;24.10;59.10;;;23.27;43.61;101283.53;5028899;28;20769;-53
2021/06/03 07:20:23;;;;;;;3.05;0.70;;;23.90;59.70;;;23.32;43.28;101282.91;5010935;28;20030;-46
2021/06/03 07:22:53;;;;;;;2.35;1.00;;;23.80;59.70;;;22.56;44.24;101288.69;5010630;28;20026;-52
2021/06/03 07:25:22;;;;;;;1.77;0.90;;;23.50;59.90;;;22.84;44.05;101294.63;5028330;28;20029;-53
2021/06/03 07:27:50;;;;;;;7.00;0.98;;;23.50;60.90;;;23.09;43.57;101284.19;5028285;28;20511;-52
2021/06/03 07:30:20;;;;;;;1.83;0.80;;;23.50;61.00;;;22.98;44.06;101291.97;5020778;28;20051;-46
2021/06/03 07:32:47;;;;;;;4.43;0.88;;;23.50;61.00;;;22.99;44.28;101296.28;5006808;28;20169;-47
2021/06/03 07:35:14;;;;;;;3.67;1.15;;;23.60;61.60;;;23.14;44.41;101288.91;5005505;28;20068;-54
2021/06/03 07:37:43;;;;;;;3.03;0.90;;;23.60;62.20;;;23.75;43.00;101288.53;5025943;28;20461;-50
2021/06/03 07:40:13;;;;;;;5.20;1.00;;;24.00;61.60;;;23.89;42.47;101291.94;5017158;28;20029;-45
2021/06/03 07:42:40;;;;;;;3.85;1.10;;;24.30;60.10;;;23.55;43.12;101283.28;5026662;28;20118;-52
2021/06/03 07:45:10;;;;;;;2.25;1.00;;;24.30;60.20;;;22.89;44.12;101287.91;5026605;28;20083;-46
2021/06/03 07:47:40;;;;;;;6.30;1.05;;;23.80;60.70;;;23.23;43.93;101287.63;5027920;28;20382;-52
2021/06/03 07:50:10;;;;;;;3.03;1.05;;;23.80;61.50;;;23.54;43.11;101288.81;5010204;28;20453;-50
2021/06/03 07:52:37;;;;;;;3.95;0.80;;;24.00;61.20;;;24.15;42.52;101278.47;5028104;28;20037;-53
2021/06/03 07:55:12;;;;;;;1.88;0.70;;;24.50;60.60;;;24.58;41.89;101288.44;5010194;28;20045;-46
2021/06/03 07:57:39;;;;;;;2.17;0.75;;;25.00;60.00;;;24.59;41.26;101290.09;5027775;28;20044;-50
2021/06/03 08:00:09;;;;;;;2.83;0.70;;;25.10;59.10;;;24.67;39.82;101282.63;5028105;28;20037;-47
2021/06/03 08:02:35;;;;;;;4.80;0.93;;;25.00;58.60;;;24.79;40.39;101280.09;5027540;28;20524;-46
2021/06/03 08:05:02;;;;;;;2.85;0.70;;;25.00;58.90;;;24.92;40.95;101279.16;5027837;28;20112;-47
2021/06/03 08:07:30;;;;;;;5.75;1.20;;;25.20;59.00;;;24.84;40.51;101279.44;5026602;28;20431;-48
2021/06/03 08:09:57;;;;;;;1.48;0.50;;;25.20;58.40;;;25.09;39.33;101282.91;5026100;28;20045;-48
2021/06/03 08:12:23;;;;;;;5.35;0.95;;;25.40;57.90;;;25.37;38.86;101283.22;5027710;28;20586;-48
2021/06/03 08:14:49;;;;;;;2.10;0.75;;;25.70;56.80;;;25.06;38.37;101280.66;5027764;28;20099;-51
2021/06/03 08:17:15;;;;;;;3.47;0.82;;;25.60;55.50;;;24.98;38.20;101287.13;5027697;28;20034;-48
2021/06/03 08:19:41;;;;;;;2.55;0.70;;;25.60;55.80;;;25.63;37.81;101276.75;5027884;28;20033;-53
2021/06/03 08:22:07;;;;;;;3.85;0.68;;;26.00;55.80;;;26.12;36.50;101275.72;5027820;28;20025;-49
2021/06/03 08:24:33;;;;;;;3.50;0.70;;;26.50;54.10;;;25.71;35.89;101278.34;5027749;28;20441;-52
2021/06/03 08:26:59;;;;;;;2.25;0.63;;;26.30;53.40;;;25.86;36.42;101269.94;5027744;28;20038;-47
2021/06/03 08:29:25;;;;;;;2.63;0.50;;;26.30;53.40;;;26.31;36.11;101273.84;5027248;28;20377;-52
2021/06/03 08:31:52;;;;;;;7.10;1.05;;;26.70;53.80;;;26.15;36.54;101273.63;5028693;28;20052;-47
2021/06/03 08:34:18;;;;;;;4.43;0.52;;;26.70;53.90;;;25.63;37.18;101275.94;5031630;28;20052;-45
2021/06/03 08:36:44;;;;;;;5.95;0.60;;;26.30;53.70;;;25.73;36.64;101277.06;5031878;28;20392;-48
2021/06/03 08:39:10;;;;;;;3.92;1.02;;;26.30;54.00;;;25.94;36.46;101277.63;5031424;28;20147;-51
2021/06/03 08:41:42;;;;;;;3.17;0.63;;;26.40;53.60;;;26.47;35.58;101266.97;5031573;28;20044;-49
2021/06/03 08:44:09;;;;;;;5.15;0.60;;;26.80;53.40;;;26.52;35.53;101264.44;5031137;28;20161;-53
2021/06/03 08:46:36;;;;;;;6.63;1.10;;;26.90;53.10;;;26.59;35.39;101270.50;5031359;28;20048;-55
2021/06/03 08:49:08;;;;;;;3.80;0.60;;;27.10;52.70;;;26.54;34.62;101262.34;5031472;28;20076;-51
2021/06/03 08:51:34;;;;;;;5.78;0.95;;;26.90;52.40;;;26.66;34.71;101271.19;5031562;28;20037;-55
2021/06/03 08:54:01;;;;;;;4.47;0.88;;;27.10;52.20;;;26.54;35.35;101267.69;5031663;28;20511;-49
2021/06/03 08:56:28;;;;;;;1.70;0.60;;;27.00;52.50;;;26.83;34.68;101265.19;5030118;28;20041;-48
2021/06/03 08:58:58;;;;;;;1.10;0.70;;;27.20;52.60;;;26.94;34.60;101267.81;5013125;28;20034;-54
2021/06/03 09:01:26;;;;;;;4.65;0.57;;;27.30;52.10;;;27.31;33.91;101268.41;5031305;28;20037;-52
2021/06/03 09:03:52;;;;;;;4.43;0.60;;;27.50;51.90;;;27.51;33.83;101261.81;5031152;28;20147;-52
2021/06/03 09:06:19;;;;;;;4.60;1.00;;;27.70;51.80;;;27.59;33.21;101261.50;5030959;28;20065;-48
2021/06/03 09:08:59;;;;;;;2.50;0.93;;;27.90;51.10;;;27.84;32.43;101267.34;5030799;28;20836;-52
2021/06/03 09:11:34;;;;;;;1.10;0.80;;;28.10;50.60;;;27.09;33.33;101259.38;5030926;28;20040;-50
2021/06/03 09:14:05;;;;;;;4.75;0.52;;;27.60;50.40;;;27.62;33.28;101258.34;5031090;28;20212;-49
2021/06/03 09:16:34;;;;;;;1.63;0.50;;;27.80;50.90;;;27.53;31.12;101271.25;5012928;28;20120;-45
2021/06/03 09:19:09;;;;;;;1.52;0.50;;;28.00;48.80;;;27.29;32.00;101259.81;5030967;28;20037;-56
2021/06/03 09:21:51;;;;;;;2.28;0.70;;;27.70;48.90;;;27.20;31.30;101255.03;5010110;28;20080;-54
2021/06/03 09:24:20;;;;;;;6.75;0.70;;;27.70;49.00;;;26.91;32.22;101262.16;5010936;28;20087;-53
2021/06/03 09:26:53;;;;;;;1.40;0.60;;;27.30;48.70;;;27.17;31.58;101261.69;5011529;28;20116;-54
2021/06/03 09:29:34;;;;;;;17.23;0.82;;;27.30;48.80;;;27.04;30.97;101246.69;5029886;28;20464;-47
2021/06/03 09:32:11;;;;;;;4.30;0.88;;;27.40;48.10;;;26.89;31.72;101264.25;5030427;28;20041;-56
2021/06/03 09:34:40;;;;;;;1.75;0.73;;;27.30;48.40;;;26.48;32.76;101257.94;5030669;28;20033;-53
2021/06/03 09:37:10;;;;;;;5.18;1.00;;;27.00;49.30;;;26.73;33.47;101260.41;5030414;28;20558;-49
2021/06/03 09:39:41;;;;;;;3.78;0.70;;;26.90;50.30;;;26.96;33.25;101254.25;5031007;28;20025;-42
2021/06/03 09:42:19;;;;;;;2.05;1.15;;;27.20;50.30;;;27.09;33.48;101246.00;5030371;28;20113;-53
2021/06/03 09:44:51;;;;;;;3.00;0.60;;;27.30;50.90;;;27.49;32.60;101247.88;5011194;28;20191;-51
2021/06/03 09:47:21;;;;;;;3.60;0.80;;;27.60;50.30;;;27.52;32.12;101253.56;5012722;28;20076;-48
2021/06/03 09:49:52;;;;;;;2.65;0.68;;;27.80;49.20;;;27.57;32.87;101248.31;5030024;28;20037;-48
2021/06/03 09:52:32;;;;;;;4.40;0.90;;;27.80;50.10;;;27.03;32.77;101244.25;5030170;28;20041;-49
2021/06/03 09:55:10;;;;;;;1.85;0.77;;;27.50;50.00;;;26.39;33.74;101246.78;5012140;28;20652;-47
2021/06/03 09:57:45;;;;;;;1.55;0.70;;;27.10;50.10;;;26.35;33.65;101255.50;4996566;28;20041;-48
2021/06/03 10:00:21;;;;;;;4.25;0.98;;;26.90;50.00;;;27.17;33.35;101256.31;5030219;28;20059;-54
2021/06/03 10:02:54;;;;;;;2.05;0.70;;;27.20;50.90;;;27.53;33.41;101247.16;5012154;28;20045;-52
2021/06/03 10:05:22;;;;;;;5.10;0.55;;;27.60;51.00;;;26.97;33.90;101246.00;5030043;28;20029;-51
2021/06/03 10:08:05;;;;;;;2.28;0.70;;;27.50;50.60;;;26.94;31.80;101248.31;5011825;28;20493;-46
2021/06/03 10:10:34;;;;;;;2.25;0.63;;;27.30;48.20;;;27.35;33.10;101237.47;5011941;28;20520;-49
2021/06/03 10:13:09;;;;;;;3.72;0.85;;;27.50;50.30;;;27.72;32.45;101242.47;5029741;28;20041;-49
2021/06/03 10:15:37;;;;;;;1.38;0.60;;;27.90;49.90;;;27.89;32.30;101243.31;5029929;28;20044;-53
2021/06/03 10:18:09;;;;;;;1.85;0.40;;;28.10;49.60;;;27.81;31.77;101240.22;5029533;28;20033;-51
2021/06/03 10:20:56;;;;;;;3.33;0.50;;;28.10;49.10;;;28.05;31.40;101237.19;5029653;28;20033;-50